Time;durP1;ratioP1;P1;durP2;ratioP2;P2;SDS_P1;SDS_P2;PMS_P1;PMS_P2;Temp;Humidity;BMP_temperature;BMP_pressure;BME280_temperature;BME280_humidity;BME280_pressure;Samples;Min_cycle;Max_cycle;Signal;HPM_P1;HPM_P2
2024/03/10 00:01:35;;;;;;;;;;;;;;;;;;5095539;28;19908;-71
2024/03/10 00:04:01;;;;;;;;;;;;;;;;;;5095021;28;19909;-70
2024/03/10 00:06:27;;;;;;;;;;;;;;;;;;5095354;28;19953;-71
2024/03/10 00:08:53;;;;;;;;;;;;;;;;;;5095150;28;19908;-71
2024/03/10 00:11:19;;;;;;;;;;;;;;;;;;5095233;28;19908;-71
2024/03/10 00:13:45;;;;;;;;;;;;;;;;;;5095129;28;19919;-71
2024/03/10 00:16:11;;;;;;;;;;;;;;;;;;5094865;28;19944;-70
2024/03/10 00:18:37;;;;;;;;;;;;;;;;;;5076112;28;19909;-70
2024/03/10 00:21:03;;;;;;;;;;;;;;;;;;5076918;28;19912;-70
2024/03/10 00:23:30;;;;;;;;;;;;;;;;;;5094676;28;20314;-70
2024/03/10 00:25:56;;;;;;;;;;;;;;;;;;5094992;28;20394;-70
2024/03/10 00:28:22;;;;;;;;;;;;;;;;;;5094954;28;19908;-71
2024/03/10 00:30:48;;;;;;;;;;;;;;;;;;5076439;28;19908;-71
2024/03/10 00:33:14;;;;;;;;;;;;;;;;;;5076388;28;20420;-71
2024/03/10 00:35:40;;;;;;;;;;;;;;;;;;5094840;28;19908;-71
2024/03/10 00:38:07;;;;;;;;;;;;;;;;;;5076254;28;19995;-71
2024/03/10 00:40:33;;;;;;;;;;;;;;;;;;5094706;28;19908;-71
2024/03/10 00:42:59;;;;;;;;;;;;;;;;;;5094896;28;19908;-71
2024/03/10 00:45:25;;;;;;;;;;;;;;;;;;5094488;28;20360;-71
2024/03/10 00:47:54;;;;;;;;;;;;;;;;;;5094586;28;19967;-71
2024/03/10 00:50:20;;;;;;;;;;;;;;;;;;5076455;28;19908;-71
2024/03/10 00:52:46;;;;;;;;;;;;;;;;;;5076032;28;19966;-71
2024/03/10 00:55:12;;;;;;;;;;;;;;;;;;5094389;28;19919;-71
2024/03/10 00:57:38;;;;;;;;;;;;;;;;;;5094744;28;20423;-70
2024/03/10 01:00:04;;;;;;;;;;;;;;;;;;5094070;28;19930;-70
2024/03/10 01:02:30;;;;;;;;;;;;;;;;;;5094428;28;20283;-71
2024/03/10 01:04:56;;;;;;;;;;;;;;;;;;5094365;28;19944;-71
2024/03/10 01:07:22;;;;;;;;;;;;;;;;;;5093929;28;19908;-71
2024/03/10 01:09:48;;;;;;;;;;;;;;;;;;5094292;28;20007;-71
2024/03/10 01:12:14;;;;;;;;;;;;;;;;;;5093848;28;19995;-71
2024/03/10 01:14:40;;;;;;;;;;;;;;;;;;5094114;28;19939;-71
2024/03/10 01:17:08;;;;;;;;;;;;;;;;;;5094131;28;19912;-71
2024/03/10 01:19:35;;;;;;;;;;;;;;;;;;5075969;28;19915;-71
2024/03/10 01:22:01;;;;;;;;;;;;;;;;;;5094124;28;19908;-70
2024/03/10 01:24:27;;;;;;;;;;;;;;;;;;5094108;28;20279;-71
2024/03/10 01:26:53;;;;;;;;;;;;;;;;;;5075556;28;19908;-70
2024/03/10 01:29:19;;;;;;;;;;;;;;;;;;5093842;28;20027;-71
2024/03/10 01:31:45;;;;;;;;;;;;;;;;;;5093978;28;19969;-71
2024/03/10 01:34:11;;;;;;;;;;;;;;;;;;5093254;28;19931;-71
2024/03/10 01:36:37;;;;;;;;;;;;;;;;;;5093993;28;19909;-71
2024/03/10 01:39:03;;;;;;;;;;;;;;;;;;5094272;28;19909;-71
2024/03/10 01:41:31;;;;;;;;;;;;;;;;;;5093786;28;19909;-71
2024/03/10 01:43:57;;;;;;;;;;;;;;;;;;5093840;28;20022;-71
2024/03/10 01:46:23;;;;;;;;;;;;;;;;;;5093894;28;19942;-71
2024/03/10 01:48:49;;;;;;;;;;;;;;;;;;5093397;28;19915;-70
2024/03/10 01:51:15;;;;;;;;;;;;;;;;;;5093774;28;19908;-71
2024/03/10 01:53:41;;;;;;;;;;;;;;;;;;5075562;28;19959;-71
2024/03/10 01:56:07;;;;;;;;;;;;;;;;;;5093372;28;19915;-71
2024/03/10 01:58:33;;;;;;;;;;;;;;;;;;5093763;28;19915;-71
2024/03/10 02:01:02;;;;;;;;;;;;;;;;;;5093897;28;20360;-71
2024/03/10 02:03:28;;;;;;;;;;;;;;;;;;5093242;28;19908;-71
2024/03/10 02:05:54;;;;;;;;;;;;;;;;;;5093623;28;20360;-71
2024/03/10 02:08:20;;;;;;;;;;;;;;;;;;5093905;28;19915;-71
2024/03/10 02:10:48;;;;;;;;;;;;;;;;;;5075093;28;19981;-71
2024/03/10 02:13:14;;;;;;;;;;;;;;;;;;5093458;28;19916;-71
2024/03/10 02:15:40;;;;;;;;;;;;;;;;;;5093143;28;20059;-71
2024/03/10 02:18:06;;;;;;;;;;;;;;;;;;5093627;28;19912;-71
2024/03/10 02:20:32;;;;;;;;;;;;;;;;;;5093568;28;19915;-71
2024/03/10 02:22:58;;;;;;;;;;;;;;;;;;5075023;28;19908;-71
2024/03/10 02:25:24;;;;;;;;;;;;;;;;;;5093635;28;19908;-70
2024/03/10 02:27:52;;;;;;;;;;;;;;;;;;5093746;28;19912;-71
2024/03/10 02:30:19;;;;;;;;;;;;;;;;;;5093100;28;19909;-71
2024/03/10 02:49:13;;;;;;;;;;;;;;;;;;5096987;28;19958;-71
2024/03/10 02:51:39;;;;;;;;;;;;;;;;;;5096687;28;19915;-71
2024/03/10 02:54:06;;;;;;;;;;;;;;;;;;5096683;28;19916;-70
2024/03/10 02:56:32;;;;;;;;;;;;;;;;;;5096833;28;19908;-71
2024/03/10 02:58:58;;;;;;;;;;;;;;;;;;5096324;28;19912;-71
2024/03/10 03:01:24;;;;;;;;;;;;;;;;;;5096641;28;19908;-71
2024/03/10 03:03:51;;;;;;;;;;;;;;;;;;5096700;28;19915;-71
2024/03/10 03:06:17;;;;;;;;;;;;;;;;;;5096085;28;19960;-71
2024/03/10 03:08:43;;;;;;;;;;;;;;;;;;5096514;28;19912;-71
2024/03/10 03:11:09;;;;;;;;;;;;;;;;;;5096473;28;19908;-70
2024/03/10 03:13:36;;;;;;;;;;;;;;;;;;5096035;28;19923;-70
2024/03/10 03:16:01;;;;;;;;;;;;;;;;;;5096360;28;20249;-70
2024/03/10 03:18:29;;;;;;;;;;;;;;;;;;5078229;28;19915;-70
2024/03/10 03:20:55;;;;;;;;;;;;;;;;;;5095883;28;19912;-70
2024/03/10 03:23:21;;;;;;;;;;;;;;;;;;5096506;28;19954;-69
2024/03/10 03:25:49;;;;;;;;;;;;;;;;;;5095740;28;20006;-70
2024/03/10 03:28:15;;;;;;;;;;;;;;;;;;5096275;28;19909;-70
2024/03/10 03:30:42;;;;;;;;;;;;;;;;;;5096032;28;19908;-69
2024/03/10 03:33:09;;;;;;;;;;;;;;;;;;5095505;28;19965;-70
2024/03/10 03:35:37;;;;;;;;;;;;;;;;;;5095989;28;19908;-70
2024/03/10 03:38:03;;;;;;;;;;;;;;;;;;5096064;28;19966;-69
2024/03/10 03:40:29;;;;;;;;;;;;;;;;;;5095569;28;19908;-70
2024/03/10 03:42:55;;;;;;;;;;;;;;;;;;5096116;28;20352;-70
2024/03/10 03:45:22;;;;;;;;;;;;;;;;;;5096294;28;20041;-70
2024/03/10 03:47:48;;;;;;;;;;;;;;;;;;5095522;28;20049;-70
2024/03/10 03:50:15;;;;;;;;;;;;;;;;;;5095728;28;20328;-70
2024/03/10 03:52:41;;;;;;;;;;;;;;;;;;5077590;28;20002;-70
2024/03/10 03:55:07;;;;;;;;;;;;;;;;;;5095078;28;19962;-70
2024/03/10 03:57:33;;;;;;;;;;;;;;;;;;5077462;28;20007;-70
2024/03/10 03:59:59;;;;;;;;;;;;;;;;;;5095452;28;20006;-70
2024/03/10 04:02:28;;;;;;;;;;;;;;;;;;5095015;28;19908;-70
2024/03/10 04:04:54;;;;;;;;;;;;;;;;;;5095325;28;19930;-71
2024/03/10 04:07:20;;;;;;;;;;;;;;;;;;5095505;28;20405;-70
2024/03/10 04:09:46;;;;;;;;;;;;;;;;;;5094901;28;19947;-70
2024/03/10 04:12:12;;;;;;;;;;;;;;;;;;5095334;28;19954;-70
2024/03/10 04:14:38;;;;;;;;;;;;;;;;;;5095150;28;19923;-70
2024/03/10 04:17:04;;;;;;;;;;;;;;;;;;5094774;28;19908;-70
2024/03/10 04:19:30;;;;;;;;;;;;;;;;;;5076994;28;19977;-70
2024/03/10 04:21:56;;;;;;;;;;;;;;;;;;5095152;28;19912;-70
2024/03/10 04:24:22;;;;;;;;;;;;;;;;;;5094637;28;19999;-69
2024/03/10 04:26:48;;;;;;;;;;;;;;;;;;5095309;28;19959;-69
2024/03/10 04:29:14;;;;;;;;;;;;;;;;;;5094552;28;19908;-70
2024/03/10 04:31:40;;;;;;;;;;;;;;;;;;5094905;28;20368;-70
2024/03/10 04:34:06;;;;;;;;;;;;;;;;;;5094685;28;19924;-70
2024/03/10 04:36:33;;;;;;;;;;;;;;;;;;5094543;28;19915;-70
2024/03/10 04:38:59;;;;;;;;;;;;;;;;;;5094801;28;19908;-70
2024/03/10 04:41:25;;;;;;;;;;;;;;;;;;5094784;28;19936;-70
2024/03/10 04:43:51;;;;;;;;;;;;;;;;;;5094258;28;19910;-70
2024/03/10 04:46:18;;;;;;;;;;;;;;;;;;5094629;28;19908;-70
2024/03/10 04:48:44;;;;;;;;;;;;;;;;;;5076457;28;19995;-70
2024/03/10 04:51:10;;;;;;;;;;;;;;;;;;5094499;28;20364;-70
2024/03/10 04:53:36;;;;;;;;;;;;;;;;;;5094500;28;20360;-70
2024/03/10 04:56:02;;;;;;;;;;;;;;;;;;5094441;28;19912;-70
2024/03/10 04:58:28;;;;;;;;;;;;;;;;;;5094028;28;19931;-70
2024/03/10 05:00:54;;;;;;;;;;;;;;;;;;5094485;28;19908;-70
2024/03/10 05:03:20;;;;;;;;;;;;;;;;;;5094002;28;19908;-70
2024/03/10 05:05:46;;;;;;;;;;;;;;;;;;5093975;28;20343;-70
2024/03/10 05:08:12;;;;;;;;;;;;;;;;;;5094342;28;19908;-70
2024/03/10 05:10:38;;;;;;;;;;;;;;;;;;5094237;28;19994;-70
2024/03/10 05:13:04;;;;;;;;;;;;;;;;;;5093848;28;20356;-71
2024/03/10 05:15:30;;;;;;;;;;;;;;;;;;5094247;28;20375;-70
2024/03/10 05:17:56;;;;;;;;;;;;;;;;;;5094167;28;20379;-70
2024/03/10 05:20:23;;;;;;;;;;;;;;;;;;5075632;28;20361;-70
2024/03/10 05:22:49;;;;;;;;;;;;;;;;;;5094192;28;19912;-69
2024/03/10 05:25:15;;;;;;;;;;;;;;;;;;5094030;28;20013;-70
2024/03/10 05:27:41;;;;;;;;;;;;;;;;;;5093582;28;19954;-70
2024/03/10 05:30:07;;;;;;;;;;;;;;;;;;5094007;28;19942;-70
2024/03/10 05:32:33;;;;;;;;;;;;;;;;;;5093401;28;19951;-69
2024/03/10 05:34:59;;;;;;;;;;;;;;;;;;5093881;28;19916;-70
2024/03/10 05:37:25;;;;;;;;;;;;;;;;;;5093971;28;20268;-70
2024/03/10 05:39:51;;;;;;;;;;;;;;;;;;5093444;28;20315;-70
2024/03/10 05:42:17;;;;;;;;;;;;;;;;;;5075868;28;19915;-70
2024/03/10 05:44:43;;;;;;;;;;;;;;;;;;5093889;28;20002;-70
2024/03/10 05:47:11;;;;;;;;;;;;;;;;;;5093454;28;19916;-70
2024/03/10 05:49:37;;;;;;;;;;;;;;;;;;5094046;28;19961;-70
2024/03/10 05:52:03;;;;;;;;;;;;;;;;;;5093778;28;19908;-70
2024/03/10 05:54:29;;;;;;;;;;;;;;;;;;5093421;28;19923;-70
2024/03/10 05:56:55;;;;;;;;;;;;;;;;;;5093799;28;19935;-70
2024/03/10 05:59:21;;;;;;;;;;;;;;;;;;5093747;28;19908;-70
2024/03/10 06:01:47;;;;;;;;;;;;;;;;;;5093534;28;20368;-70
2024/03/10 06:04:13;;;;;;;;;;;;;;;;;;5093975;28;20395;-70
2024/03/10 06:06:39;;;;;;;;;;;;;;;;;;5093940;28;19908;-69
2024/03/10 06:09:05;;;;;;;;;;;;;;;;;;5093296;28;19915;-69
2024/03/10 06:11:32;;;;;;;;;;;;;;;;;;5093639;28;19908;-69
2024/03/10 06:13:58;;;;;;;;;;;;;;;;;;5093483;28;19916;-69
2024/03/10 06:16:24;;;;;;;;;;;;;;;;;;5094750;28;19909;-70
2024/03/10 06:26:51;;;;;;;;;;;;;;;;;;5097403;28;20001;-70
2024/03/10 06:29:17;;;;;;;;;;;;;;;;;;5096828;28;19912;-71
2024/03/10 06:31:43;;;;;;;;;;;;;;;;;;5079173;28;19965;-71
2024/03/10 06:34:10;;;;;;;;;;;;;;;;;;5078757;28;19920;-71
2024/03/10 06:36:35;;;;;;;;;;;;;;;;;;5096804;28;20380;-71
2024/03/10 06:39:03;;;;;;;;;;;;;;;;;;5097379;28;19915;-70
2024/03/10 06:41:29;;;;;;;;;;;;;;;;;;5097099;28;19908;-70
2024/03/10 06:43:55;;;;;;;;;;;;;;;;;;5078478;28;20383;-70
2024/03/10 06:46:21;;;;;;;;;;;;;;;;;;5078709;28;20348;-70
2024/03/10 06:48:47;;;;;;;;;;;;;;;;;;5096919;28;20334;-70
2024/03/10 06:51:13;;;;;;;;;;;;;;;;;;5078335;28;19999;-71
2024/03/10 06:53:39;;;;;;;;;;;;;;;;;;5078569;28;19912;-71
2024/03/10 06:56:05;;;;;;;;;;;;;;;;;;5096907;28;19908;-70
2024/03/10 06:58:31;;;;;;;;;;;;;;;;;;5096424;28;19908;-70
2024/03/10 07:00:58;;;;;;;;;;;;;;;;;;5096641;28;20390;-70
2024/03/10 07:03:24;;;;;;;;;;;;;;;;;;5096696;28;19908;-70
2024/03/10 07:05:50;;;;;;;;;;;;;;;;;;5077964;28;19915;-70
2024/03/10 07:08:16;;;;;;;;;;;;;;;;;;5096596;28;19912;-70
2024/03/10 07:10:41;;;;;;;;;;;;;;;;;;5078414;28;19912;-70
2024/03/10 07:13:13;;;;;;;;;;;;;;;;;;5095972;28;20284;-71
2024/03/10 07:15:39;;;;;;;;;;;;;;;;;;5078233;28;19919;-71
2024/03/10 07:18:05;;;;;;;;;;;;;;;;;;5096627;28;20256;-71
2024/03/10 07:20:31;;;;;;;;;;;;;;;;;;5096389;28;19908;-70
2024/03/10 07:22:57;;;;;;;;;;;;;;;;;;5078089;28;20334;-71
2024/03/10 07:25:25;;;;;;;;;;;;;;;;;;5095845;28;19948;-72
2024/03/10 07:27:51;;;;;;;;;;;;;;;;;;5096181;28;20277;-71
2024/03/10 07:30:17;;;;;;;;;;;;;;;;;;5096257;28;19908;-71
2024/03/10 07:32:45;;;;;;;;;;;;;;;;;;5095684;28;19912;-71
2024/03/10 07:35:12;;;;;;;;;;;;;;;;;;5096117;28;20019;-71
2024/03/10 07:37:38;;;;;;;;;;;;;;;;;;5077878;28;20034;-71
2024/03/10 07:40:15;;;;;;;;;;;;;;;;;;5095530;28;19935;-71
2024/03/10 07:42:41;;;;;;;;;;;;;;;;;;5077747;28;19988;-71
2024/03/10 07:45:07;;;;;;;;;;;;;;;;;;5095836;28;19912;-71
2024/03/10 07:47:33;;;;;;;;;;;;;;;;;;5095461;28;19908;-71
2024/03/10 07:49:59;;;;;;;;;;;;;;;;;;5095989;28;20280;-71
2024/03/10 07:52:25;;;;;;;;;;;;;;;;;;5095691;28;19908;-70
2024/03/10 07:54:52;;;;;;;;;;;;;;;;;;5095134;28;19920;-71
2024/03/10 07:57:18;;;;;;;;;;;;;;;;;;5077509;28;19915;-71
2024/03/10 07:59:44;;;;;;;;;;;;;;;;;;5095527;28;20225;-71
2024/03/10 08:02:10;;;;;;;;;;;;;;;;;;5095128;28;19908;-71
2024/03/10 08:04:36;;;;;;;;;;;;;;;;;;5095460;28;19912;-71
2024/03/10 08:07:03;;;;;;;;;;;;;;;;;;5077306;28;19908;-71
2024/03/10 08:09:29;;;;;;;;;;;;;;;;;;5095279;28;19912;-71
2024/03/10 08:11:55;;;;;;;;;;;;;;;;;;5095344;28;20418;-71
2024/03/10 08:14:21;;;;;;;;;;;;;;;;;;5094936;28;19924;-71
2024/03/10 08:16:48;;;;;;;;;;;;;;;;;;5095275;28;19912;-71
2024/03/10 08:19:14;;;;;;;;;;;;;;;;;;5095228;28;20360;-70
2024/03/10 08:21:40;;;;;;;;;;;;;;;;;;5094790;28;19938;-70
2024/03/10 08:24:09;;;;;;;;;;;;;;;;;;5095121;28;19912;-70
2024/03/10 08:26:35;;;;;;;;;;;;;;;;;;5095158;28;19912;-70
2024/03/10 08:29:02;;;;;;;;;;;;;;;;;;5094767;28;19908;-70
2024/03/10 08:31:28;;;;;;;;;;;;;;;;;;5094979;28;19931;-71
2024/03/10 08:33:54;;;;;;;;;;;;;;;;;;5094648;28;19927;-71
2024/03/10 08:36:20;;;;;;;;;;;;;;;;;;5094638;28;19908;-70
2024/03/10 08:38:46;;;;;;;;;;;;;;;;;;5094134;28;19912;-70
2024/03/10 08:41:13;;;;;;;;;;;;;;;;;;5094707;28;19974;-70
2024/03/10 08:43:39;;;;;;;;;;;;;;;;;;5094314;28;19937;-70
2024/03/10 08:46:05;;;;;;;;;;;;;;;;;;5094723;28;19912;-70
2024/03/10 08:48:31;;;;;;;;;;;;;;;;;;5094699;28;19908;-70
2024/03/10 08:50:57;;;;;;;;;;;;;;;;;;5094229;28;19912;-70
2024/03/10 08:53:23;;;;;;;;;;;;;;;;;;5094459;28;19915;-71
2024/03/10 08:55:50;;;;;;;;;;;;;;;;;;5094501;28;19912;-70
2024/03/10 08:58:17;;;;;;;;;;;;;;;;;;5094084;28;20406;-70
2024/03/10 09:00:43;;;;;;;;;;;;;;;;;;5094398;28;19965;-71
2024/03/10 09:03:10;;;;;;;;;;;;;;;;;;5094398;28;19908;-71
2024/03/10 09:05:36;;;;;;;;;;;;;;;;;;5093910;28;19912;-71
2024/03/10 09:08:02;;;;;;;;;;;;;;;;;;5094340;28;20272;-71
2024/03/10 09:10:28;;;;;;;;;;;;;;;;;;5075665;28;19908;-71
2024/03/10 09:12:54;;;;;;;;;;;;;;;;;;5076074;28;19930;-70
2024/03/10 09:15:21;;;;;;;;;;;;;;;;;;5094098;28;19916;-71
2024/03/10 09:17:47;;;;;;;;;;;;;;;;;;5093816;28;19943;-70
2024/03/10 09:20:13;;;;;;;;;;;;;;;;;;5094516;28;19908;-70
2024/03/10 09:22:39;;;;;;;;;;;;;;;;;;5094089;28;19915;-70
2024/03/10 09:25:06;;;;;;;;;;;;;;;;;;5093628;28;19908;-70
2024/03/10 09:27:32;;;;;;;;;;;;;;;;;;5075955;28;19983;-70
2024/03/10 09:29:59;;;;;;;;;;;;;;;;;;5094007;28;19948;-72
2024/03/10 09:32:26;;;;;;;;;;;;;;;;;;5075521;28;19908;-73
2024/03/10 09:34:53;;;;;;;;;;;;;;;;;;5093741;28;19920;-72
2024/03/10 09:37:20;;;;;;;;;;;;;;;;;;5093970;28;19920;-72
2024/03/10 09:39:46;;;;;;;;;;;;;;;;;;5093826;28;20323;-72
2024/03/10 09:42:14;;;;;;;;;;;;;;;;;;5093853;28;19908;-70
2024/03/10 09:45:48;;;;;;;;;;;;;;;;;;5104177;27;19935;-71
2024/03/10 09:48:14;;;;;;;;;;;;;;;;;;5071156;28;19913;-71
2024/03/10 09:50:40;;;;;;;;;;;;;;;;;;5069794;28;19915;-71
2024/03/10 09:53:07;;;;;;;;;;;;;;;;;;5070973;28;19909;-71
2024/03/10 09:55:34;;;;;;;;;;;;;;;;;;5070984;28;19991;-71
2024/03/10 09:58:48;;;;;;;;;;;;;;;;;;5104021;27;19912;-72
2024/03/10 10:01:14;;;;;;;;;;;;;;;;;;5070732;28;19913;-72
2024/03/10 10:03:40;;;;;;;;;;;;;;;;;;5071112;28;19970;-72
2024/03/10 10:06:08;;;;;;;;;;;;;;;;;;5071102;28;20288;-72
2024/03/10 10:10:23;;;;;;;;;;;;;;;;;;5104234;27;19913;-71
2024/03/10 10:12:49;;;;;;;;;;;;;;;;;;5071163;28;19919;-71
2024/03/10 10:18:15;;;;;;;;;;;;;;;;;;5103461;27;19913;-73
2024/03/10 10:20:42;;;;;;;;;;;;;;;;;;5071073;28;20369;-71
2024/03/10 10:23:08;;;;;;;;;;;;;;;;;;5070996;28;19909;-71
2024/03/10 10:25:37;;;;;;;;;;;;;;;;;;5071047;28;19912;-72
2024/03/10 10:28:02;;;;;;;;;;;;;;;;;;5070589;28;19909;-71
2024/03/10 10:30:28;;;;;;;;;;;;;;;;;;5070990;28;19953;-72
2024/03/10 10:32:54;;;;;;;;;;;;;;;;;;5070912;28;19952;-73
2024/03/10 10:36:16;;;;;;;;;;;;;;;;;;5103191;27;19912;-71
2024/03/10 10:38:45;;;;;;;;;;;;;;;;;;5071227;28;19912;-71
2024/03/10 10:41:11;;;;;;;;;;;;;;;;;;5071059;28;19988;-71
2024/03/10 10:47:07;;;;;;;;;;;;;;;;;;5103865;27;19936;-72
2024/03/10 10:49:33;;;;;;;;;;;;;;;;;;5070781;28;19913;-73
2024/03/10 10:52:01;;;;;;;;;;;;;;;;;;5071118;28;20315;-73
2024/03/10 10:56:14;;;;;;;;;;;;;;;;;;5103634;27;19912;-73
2024/03/10 10:58:41;;;;;;;;;;;;;;;;;;5071170;28;20007;-71
2024/03/10 11:01:32;;;;;;;;;;;;;;;;;;5104214;27;19920;-72
2024/03/10 11:03:58;;;;;;;;;;;;;;;;;;5070777;28;19913;-72
2024/03/10 11:06:25;;;;;;;;;;;;;;;;;;5071065;28;19908;-72
2024/03/10 11:08:52;;;;;;;;;;;;;;;;;;5071182;28;19951;-72
2024/03/10 11:12:57;;;;;;;;;;;;;;;;;;5103634;27;19913;-73
2024/03/10 11:20:22;;;;;;;;;;;;;;;;;;5103996;27;19913;-72
2024/03/10 11:23:46;;;;;;;;;;;;;;;;;;5103859;27;20319;-72
2024/03/10 11:26:12;;;;;;;;;;;;;;;;;;5070715;28;19913;-72
2024/03/10 11:29:57;;;;;;;;;;;;;;;;;;5104094;27;20273;-72
2024/03/10 11:33:13;;;;;;;;;;;;;;;;;;5103498;27;19920;-72
2024/03/10 11:35:39;;;;;;;;;;;;;;;;;;5071187;28;19920;-72
2024/03/10 11:38:05;;;;;;;;;;;;;;;;;;5070964;28;19908;-72
2024/03/10 11:41:47;;;;;;;;;;;;;;;;;;5103985;27;19967;-71
2024/03/10 11:47:05;;;;;;;;;;;;;;;;;;5103217;27;20292;-71
2024/03/10 11:55:34;;;;;;;;;;;;;;;;;;5104520;27;20268;-72
2024/03/10 11:58:00;;;;;;;;;;;;;;;;;;5071694;28;19914;-72
2024/03/10 12:00:27;;;;;;;;;;;;;;;;;;5070810;28;19978;-72
2024/03/10 12:03:02;;;;;;;;;;;;;;;;;;5104067;27;19920;-72
2024/03/10 12:05:28;;;;;;;;;;;;;;;;;;5069943;28;19916;-72
2024/03/10 12:07:54;;;;;;;;;;;;;;;;;;5070747;28;19909;-72
2024/03/10 12:14:48;;;;;;;;;;;;;;;;;;5103453;27;19913;-71
2024/03/10 12:17:14;;;;;;;;;;;;;;;;;;5071161;28;19919;-72
2024/03/10 12:24:17;;;;;;;;;;;;;;;;;;5103956;27;19912;-72
2024/03/10 12:26:44;;;;;;;;;;;;;;;;;;5069912;28;20411;-71
2024/03/10 12:29:10;;;;;;;;;;;;;;;;;;5070850;28;19931;-71
2024/03/10 12:31:37;;;;;;;;;;;;;;;;;;5071109;28;19913;-71
2024/03/10 12:36:25;;;;;;;;;;;;;;;;;;5172316;27;19911;-71
2024/03/10 12:38:52;;;;;;;;;;;;;;;;;;5173771;27;19911;-71
2024/03/10 12:41:20;;;;;;;;;;;;;;;;;;5173676;27;19914;-72
2024/03/10 12:44:31;;;;;;;;;;;;;;;;;;5103937;27;19913;-71
2024/03/10 12:46:56;;;;;;;;;;;;;;;;;;5071485;28;19913;-71
2024/03/10 12:52:57;;;;;;;;;;;;;;;;;;5103875;27;19919;-72
2024/03/10 12:55:23;;;;;;;;;;;;;;;;;;5071565;28;19912;-71
2024/03/10 12:57:49;;;;;;;;;;;;;;;;;;5069647;28;20388;-72
2024/03/10 13:03:33;;;;;;;;;;;;;;;;;;5103558;27;19912;-71
2024/03/10 13:06:36;;;;;;;;;;;;;;;;;;5103458;27;19919;-72
2024/03/10 13:09:02;;;;;;;;;;;;;;;;;;5071143;28;19913;-72
2024/03/10 13:12:29;;;;;;;;;;;;;;;;;;5103717;27;20385;-72
2024/03/10 13:14:55;;;;;;;;;;;;;;;;;;5071179;28;19919;-72
2024/03/10 13:17:21;;;;;;;;;;;;;;;;;;5070901;28;20431;-71
2024/03/10 13:20:48;;;;;;;;;;;;;;;;;;5124838;27;19919;-71
2024/03/10 13:23:14;;;;;;;;;;;;;;;;;;5091361;28;19912;-72
2024/03/10 13:25:40;;;;;;;;;;;;;;;;;;5090890;28;19908;-71
2024/03/10 13:28:06;;;;;;;;;;;;;;;;;;5090036;28;20265;-71
2024/03/10 13:30:32;;;;;;;;;;;;;;;;;;5089862;28;20291;-71
2024/03/10 13:32:58;;;;;;;;;;;;;;;;;;5090757;28;19909;-71
2024/03/10 13:36:44;;;;;;;;;;;;;;;;;;5093872;28;19962;-73
2024/03/10 13:39:11;;;;;;;;;;;;;;;;;;5111353;28;19912;-73
2024/03/10 13:45:41;;;;;;;;;;;;;;;;;;5144245;27;19912;-72
2024/03/10 13:50:19;;;;;;;;;;;;;;;;;;5103969;27;19912;-72
2024/03/10 13:54:25;;;;;;;;;;;;;;;;;;5103702;27;19924;-72
2024/03/10 13:56:51;;;;;;;;;;;;;;;;;;5069913;28;20361;-72
2024/03/10 13:59:17;;;;;;;;;;;;;;;;;;5069524;28;19909;-72
2024/03/10 14:02:02;;;;;;;;;;;;;;;;;;5104301;27;19913;-72
2024/03/10 14:05:06;;;;;;;;;;;;;;;;;;5103706;27;19958;-71
2024/03/10 14:07:32;;;;;;;;;;;;;;;;;;5070908;28;19913;-72
2024/03/10 14:09:58;;;;;;;;;;;;;;;;;;5071078;28;20369;-72
2024/03/10 14:12:24;;;;;;;;;;;;;;;;;;5071100;28;19909;-72
2024/03/10 14:17:32;;;;;;;;;;;;;;;;;;5104349;27;19913;-71
2024/03/10 14:23:20;;;;;;;;;;;;;;;;;;5104046;27;19912;-71
2024/03/10 14:25:46;;;;;;;;;;;;;;;;;;5071096;28;19912;-71
2024/03/10 14:28:12;;;;;;;;;;;;;;;;;;5070803;28;19913;-71
2024/03/10 14:32:19;;;;;;;;;;;;;;;;;;5104157;27;19913;-72
2024/03/10 14:35:47;;;;;;;;;;;;;;;;;;5103440;27;19913;-71
2024/03/10 14:38:13;;;;;;;;;;;;;;;;;;5071332;28;20008;-72
2024/03/10 14:40:39;;;;;;;;;;;;;;;;;;5071156;28;19959;-72
2024/03/10 14:43:05;;;;;;;;;;;;;;;;;;5070627;28;20008;-72
2024/03/10 14:46:05;;;;;;;;;;;;;;;;;;5103424;27;19919;-72
2024/03/10 14:48:31;;;;;;;;;;;;;;;;;;5070833;28;19913;-72
2024/03/10 14:53:52;;;;;;;;;;;;;;;;;;5104035;27;20289;-71
2024/03/10 14:56:18;;;;;;;;;;;;;;;;;;5070698;28;19920;-71
2024/03/10 14:58:45;;;;;;;;;;;;;;;;;;5071082;28;19909;-72
2024/03/10 15:01:11;;;;;;;;;;;;;;;;;;5071044;28;19908;-72
2024/03/10 15:04:03;;;;;;;;;;;;;;;;;;5103431;27;19916;-72
2024/03/10 15:09:14;;;;;;;;;;;;;;;;;;5103303;27;19913;-72
2024/03/10 15:11:40;;;;;;;;;;;;;;;;;;5071039;28;19916;-72
2024/03/10 15:17:36;;;;;;;;;;;;;;;;;;5134191;27;20356;-72
2024/03/10 15:20:02;;;;;;;;;;;;;;;;;;5152934;27;20367;-72
2024/03/10 15:23:15;;;;;;;;;;;;;;;;;;5103829;27;19917;-73
2024/03/10 15:27:17;;;;;;;;;;;;;;;;;;5103804;27;20366;-71
2024/03/10 15:33:19;;;;;;;;;;;;;;;;;;5103760;27;20281;-72
2024/03/10 15:37:44;;;;;;;;;;;;;;;;;;5103570;27;19919;-72
2024/03/10 15:40:10;;;;;;;;;;;;;;;;;;5071153;28;19912;-72
2024/03/10 15:42:37;;;;;;;;;;;;;;;;;;5071010;28;20323;-72
2024/03/10 15:45:04;;;;;;;;;;;;;;;;;;5070606;28;19915;-70
2024/03/10 15:47:30;;;;;;;;;;;;;;;;;;5071142;28;19963;-71
2024/03/10 15:49:56;;;;;;;;;;;;;;;;;;5071000;28;19908;-71
2024/03/10 15:52:22;;;;;;;;;;;;;;;;;;5070457;28;19956;-71
2024/03/10 15:54:47;;;;;;;;;;;;;;;;;;5071171;28;19916;-72
2024/03/10 15:57:13;;;;;;;;;;;;;;;;;;5070674;28;19929;-71
2024/03/10 15:59:42;;;;;;;;;;;;;;;;;;5070580;28;19915;-71
2024/03/10 16:02:08;;;;;;;;;;;;;;;;;;5069339;28;19909;-71
2024/03/10 16:04:34;;;;;;;;;;;;;;;;;;5070809;28;20292;-72
2024/03/10 16:07:00;;;;;;;;;;;;;;;;;;5070258;28;19909;-71
2024/03/10 16:09:27;;;;;;;;;;;;;;;;;;5070734;28;20399;-71
2024/03/10 16:11:53;;;;;;;;;;;;;;;;;;5070631;28;20284;-71
2024/03/10 16:14:19;;;;;;;;;;;;;;;;;;5070273;28;19912;-72
2024/03/10 16:16:45;;;;;;;;;;;;;;;;;;5070653;28;19917;-71
2024/03/10 16:19:13;;;;;;;;;;;;;;;;;;5070500;28;20007;-71
2024/03/10 16:21:39;;;;;;;;;;;;;;;;;;5070046;28;19909;-72
2024/03/10 16:24:07;;;;;;;;;;;;;;;;;;5070373;28;19916;-71
2024/03/10 16:26:33;;;;;;;;;;;;;;;;;;5069923;28;19916;-71
2024/03/10 16:29:01;;;;;;;;;;;;;;;;;;5070128;28;19919;-72
2024/03/10 16:31:27;;;;;;;;;;;;;;;;;;5069997;28;19909;-72
2024/03/10 16:33:53;;;;;;;;;;;;;;;;;;5069712;28;19909;-72
2024/03/10 16:36:19;;;;;;;;;;;;;;;;;;5069800;28;20011;-71
2024/03/10 16:38:46;;;;;;;;;;;;;;;;;;5068650;28;19909;-71
2024/03/10 16:41:12;;;;;;;;;;;;;;;;;;5069445;28;19909;-72
2024/03/10 16:43:38;;;;;;;;;;;;;;;;;;5069756;28;20295;-72
2024/03/10 16:46:05;;;;;;;;;;;;;;;;;;5068375;28;20281;-72
2024/03/10 16:48:32;;;;;;;;;;;;;;;;;;5059218;28;19948;-72
2024/03/10 16:50:58;;;;;;;;;;;;;;;;;;5056455;28;19909;-71
2024/03/10 16:53:23;;;;;;;;;;;;;;;;;;5056943;28;20431;-72
2024/03/10 16:55:49;;;;;;;;;;;;;;;;;;5055959;28;20262;-71
2024/03/10 16:58:15;;;;;;;;;;;;;;;;;;5056302;28;19913;-72
2024/03/10 17:00:42;;;;;;;;;;;;;;;;;;5056273;28;19952;-71
2024/03/10 17:03:14;;;;;;;;;;;;;;;;;;5055833;28;19913;-71
2024/03/10 17:05:40;;;;;;;;;;;;;;;;;;5054931;28;20425;-72
2024/03/10 17:08:09;;;;;;;;;;;;;;;;;;5056212;28;19943;-71
2024/03/10 17:10:35;;;;;;;;;;;;;;;;;;5055669;28;19912;-72
2024/03/10 17:13:01;;;;;;;;;;;;;;;;;;5056045;28;19916;-71
2024/03/10 17:15:27;;;;;;;;;;;;;;;;;;5055963;28;19908;-72
2024/03/10 17:17:53;;;;;;;;;;;;;;;;;;5055681;28;19912;-71
2024/03/10 17:20:19;;;;;;;;;;;;;;;;;;5056041;28;19962;-71
2024/03/10 17:22:45;;;;;;;;;;;;;;;;;;5055489;28;19931;-71
2024/03/10 17:25:12;;;;;;;;;;;;;;;;;;5055919;28;20304;-71
2024/03/10 17:27:38;;;;;;;;;;;;;;;;;;5055750;28;20000;-71
2024/03/10 17:30:06;;;;;;;;;;;;;;;;;;5054125;28;20491;-72
2024/03/10 17:32:32;;;;;;;;;;;;;;;;;;5054462;28;19920;-72
2024/03/10 17:34:58;;;;;;;;;;;;;;;;;;5056109;28;19909;-72
2024/03/10 17:37:24;;;;;;;;;;;;;;;;;;5053745;28;19968;-72
2024/03/10 17:39:51;;;;;;;;;;;;;;;;;;5055833;28;19913;-71
2024/03/10 17:42:16;;;;;;;;;;;;;;;;;;5055622;28;19909;-71
2024/03/10 17:44:45;;;;;;;;;;;;;;;;;;5055125;28;19996;-71
2024/03/10 17:47:12;;;;;;;;;;;;;;;;;;5055761;28;19913;-71
2024/03/10 17:49:38;;;;;;;;;;;;;;;;;;5054199;28;19909;-71
2024/03/10 17:52:04;;;;;;;;;;;;;;;;;;5055045;28;19971;-71
2024/03/10 17:54:30;;;;;;;;;;;;;;;;;;5055341;28;19909;-71
2024/03/10 17:56:56;;;;;;;;;;;;;;;;;;5055193;28;19917;-71
2024/03/10 17:59:22;;;;;;;;;;;;;;;;;;5053843;28;19915;-72
2024/03/10 18:01:48;;;;;;;;;;;;;;;;;;5055223;28;19909;-71
2024/03/10 18:04:14;;;;;;;;;;;;;;;;;;5055309;28;19909;-71
2024/03/10 18:06:41;;;;;;;;;;;;;;;;;;5053399;28;20379;-71
2024/03/10 18:09:09;;;;;;;;;;;;;;;;;;5053792;28;19909;-71
2024/03/10 18:11:35;;;;;;;;;;;;;;;;;;5055307;28;19913;-71
2024/03/10 18:14:01;;;;;;;;;;;;;;;;;;5053461;28;20297;-71
2024/03/10 18:16:27;;;;;;;;;;;;;;;;;;5054804;28;20281;-70
2024/03/10 18:18:53;;;;;;;;;;;;;;;;;;5054890;28;19909;-72
2024/03/10 18:21:19;;;;;;;;;;;;;;;;;;5054423;28;19909;-70
2024/03/10 18:23:45;;;;;;;;;;;;;;;;;;5054849;28;19961;-70
2024/03/10 18:26:11;;;;;;;;;;;;;;;;;;5053121;28;19995;-70
2024/03/10 18:28:38;;;;;;;;;;;;;;;;;;5054702;28;19996;-71
2024/03/10 18:31:04;;;;;;;;;;;;;;;;;;5054604;28;19909;-71
2024/03/10 18:33:32;;;;;;;;;;;;;;;;;;5053023;28;19909;-71
2024/03/10 18:35:58;;;;;;;;;;;;;;;;;;5054279;28;19921;-71